createdAt,value
2023-04-25T00:00:47.269Z,10.10
2023-04-25T00:03:17.499Z,13.70
2023-04-25T00:05:50.432Z,16.47
2023-04-25T00:08:20.318Z,11.33
2023-04-25T00:10:50.246Z,12.87
2023-04-25T00:13:20.608Z,12.70
2023-04-25T00:15:50.448Z,16.87
2023-04-25T00:18:20.504Z,21.17
2023-04-25T00:20:53.212Z,11.77
2023-04-25T00:23:23.258Z,17.27
2023-04-25T00:25:54.121Z,16.37
2023-04-25T00:28:24.136Z,10.90
2023-04-25T00:30:54.342Z,14.77
2023-04-25T00:33:24.187Z,11.40
2023-04-25T00:35:56.965Z,11.67
2023-04-25T00:38:26.929Z,9.83
2023-04-25T00:40:56.946Z,8.97
2023-04-25T00:43:27.437Z,12.60
2023-04-25T00:45:58.864Z,10.90
2023-04-25T00:48:28.828Z,11.23
2023-04-25T00:51:02.977Z,10.83
2023-04-25T00:53:33.588Z,13.70
2023-04-25T00:56:03.582Z,18.00
2023-04-25T00:58:33.581Z,12.17
2023-04-25T01:01:03.923Z,10.33
2023-04-25T01:03:36.921Z,10.30
2023-04-25T01:06:11.070Z,17.83
2023-04-25T01:08:42.929Z,12.43
2023-04-25T01:11:12.917Z,8.37
2023-04-25T01:13:42.893Z,9.60
2023-04-25T01:16:12.985Z,11.40
2023-04-25T01:18:44.277Z,8.90
2023-04-25T01:21:17.470Z,10.43
2023-04-25T01:23:47.511Z,8.53
2023-04-25T01:26:17.665Z,13.33
2023-04-25T01:28:47.878Z,14.50
2023-04-25T01:31:19.757Z,13.77
2023-04-25T01:33:51.524Z,13.47
2023-04-25T01:36:25.487Z,9.33
2023-04-25T01:38:55.266Z,9.07
2023-04-25T01:41:25.198Z,13.77
2023-04-25T01:43:55.161Z,11.37
2023-04-25T01:46:25.176Z,13.97
2023-04-25T01:48:55.368Z,8.87
2023-04-25T01:51:27.887Z,16.43
2023-04-25T01:54:00.884Z,10.43
2023-04-25T01:56:34.868Z,12.00
2023-04-25T01:59:05.059Z,14.10
2023-04-25T02:01:34.928Z,10.67
2023-04-25T02:04:04.997Z,7.70
2023-04-25T02:06:37.716Z,13.77
2023-04-25T02:09:07.680Z,19.17
2023-04-25T02:11:37.481Z,10.23
2023-04-25T02:14:07.454Z,9.50
2023-04-25T02:16:37.411Z,14.47
2023-04-25T02:19:07.463Z,10.50
2023-04-25T02:21:40.354Z,9.20
2023-04-25T02:24:11.833Z,15.27
2023-04-25T02:26:41.676Z,8.90
2023-04-25T02:29:11.656Z,16.70
2023-04-25T02:31:41.686Z,9.80
2023-04-25T02:34:11.694Z,11.00
2023-04-25T02:36:44.218Z,8.83
2023-04-25T02:39:14.259Z,7.77
2023-04-25T02:41:44.138Z,13.70
2023-04-25T02:44:14.133Z,10.27
2023-04-25T02:46:44.504Z,13.60
2023-04-25T02:49:14.666Z,9.90
2023-04-25T02:51:47.182Z,18.07
2023-04-25T02:54:17.029Z,11.90
2023-04-25T02:56:46.913Z,11.07
2023-04-25T02:59:16.803Z,8.77
2023-04-25T03:01:46.678Z,11.57
2023-04-25T03:04:16.639Z,11.60
2023-04-25T03:06:49.286Z,9.03
2023-04-25T03:09:19.244Z,9.60
2023-04-25T03:11:49.875Z,12.73
2023-04-25T03:14:19.691Z,12.10
2023-04-25T03:16:49.602Z,13.57
2023-04-25T03:19:20.028Z,13.83
2023-04-25T03:21:52.584Z,11.00
2023-04-25T03:24:22.603Z,6.30
2023-04-25T03:26:52.764Z,12.10
2023-04-25T03:29:25.606Z,17.23
2023-04-25T03:31:55.784Z,12.13
2023-04-25T03:34:25.714Z,15.27
2023-04-25T03:36:58.330Z,10.07
2023-04-25T03:39:28.529Z,11.10
2023-04-25T03:41:58.354Z,10.03
2023-04-25T03:44:28.664Z,19.07
2023-04-25T03:46:58.700Z,11.60
2023-04-25T03:49:28.960Z,15.93
2023-04-25T03:52:01.748Z,13.30
2023-04-25T03:54:31.777Z,9.83
2023-04-25T03:57:01.667Z,13.07
2023-04-25T03:59:31.920Z,10.20
2023-04-25T04:02:03.587Z,12.77
2023-04-25T04:04:33.677Z,14.50
2023-04-25T04:07:06.762Z,11.63
2023-04-25T04:09:36.623Z,10.23
2023-04-25T04:12:10.393Z,14.17
2023-04-25T04:14:40.274Z,14.40
2023-04-25T04:17:10.263Z,17.77
2023-04-25T04:19:40.160Z,13.77
2023-04-25T04:22:12.606Z,17.37
2023-04-25T04:24:45.157Z,9.33
2023-04-25T04:27:14.960Z,15.93
2023-04-25T04:29:44.861Z,12.23
2023-04-25T04:32:14.846Z,12.30
2023-04-25T04:34:49.368Z,19.07
2023-04-25T04:37:22.208Z,12.07
2023-04-25T04:39:53.152Z,15.00
2023-04-25T04:42:23.108Z,21.00
2023-04-25T04:44:53.361Z,10.90
2023-04-25T04:47:26.952Z,13.27
2023-04-25T04:49:57.063Z,13.47
2023-04-25T04:52:29.880Z,17.70
2023-04-25T04:55:02.557Z,16.33
2023-04-25T04:57:34.038Z,13.47
2023-04-25T05:00:05.167Z,12.40
2023-04-25T05:02:35.264Z,12.23
2023-04-25T05:05:05.394Z,19.87
2023-04-25T05:07:38.237Z,16.00
2023-04-25T05:10:10.878Z,18.00
2023-04-25T05:12:41.541Z,17.87
2023-04-25T05:15:12.113Z,20.00
2023-04-25T05:17:42.972Z,19.07
2023-04-25T05:20:15.254Z,12.80
2023-04-25T05:22:47.840Z,17.53
2023-04-25T05:25:17.840Z,17.50
2023-04-25T05:27:47.714Z,14.37
2023-04-25T05:30:17.874Z,18.60
2023-04-25T05:32:48.122Z,17.00
2023-04-25T05:35:18.287Z,13.73
2023-04-25T05:37:51.204Z,26.30
2023-04-25T05:40:22.436Z,13.77
2023-04-25T05:42:52.392Z,15.23
2023-04-25T05:45:22.207Z,18.83
2023-04-25T05:47:52.054Z,10.37
2023-04-25T05:50:22.005Z,18.93
2023-04-25T05:52:55.003Z,24.30
2023-04-25T05:55:24.928Z,19.20
2023-04-25T05:57:54.827Z,23.03
2023-04-25T06:00:25.115Z,18.60
2023-04-25T06:02:55.117Z,23.60
2023-04-25T06:05:25.403Z,23.07
2023-04-25T06:07:58.058Z,14.37
2023-04-25T06:10:27.908Z,18.50
2023-04-25T06:12:57.885Z,19.40
2023-04-25T06:15:29.009Z,14.17
2023-04-25T06:17:59.741Z,14.67
2023-04-25T06:20:29.792Z,17.60
2023-04-25T06:23:05.172Z,17.70
2023-04-25T06:25:35.085Z,16.27
2023-04-25T06:28:05.108Z,11.73
2023-04-25T06:30:35.151Z,21.50
2023-04-25T06:33:05.028Z,14.57
2023-04-25T06:35:35.114Z,13.90
2023-04-25T06:38:07.753Z,10.03
2023-04-25T06:40:37.661Z,13.87
2023-04-25T06:43:09.480Z,15.27
2023-04-25T06:45:39.430Z,13.57
2023-04-25T06:48:09.690Z,16.37
2023-04-25T06:50:39.704Z,8.77
2023-04-25T06:53:12.863Z,11.90
2023-04-25T06:55:42.818Z,9.60
2023-04-25T06:58:12.674Z,10.63
2023-04-25T07:00:42.474Z,10.17
2023-04-25T07:03:13.226Z,11.97
2023-04-25T07:05:43.297Z,11.57
2023-04-25T07:08:15.836Z,8.20
2023-04-25T07:10:49.757Z,11.07
2023-04-25T07:13:20.316Z,11.13
2023-04-25T07:15:50.484Z,9.20
2023-04-25T07:18:20.467Z,11.40
2023-04-25T07:20:50.616Z,12.40
2023-04-25T07:23:23.084Z,10.87
2023-04-25T07:25:53.148Z,12.50
2023-04-25T07:28:23.037Z,14.87
2023-04-25T07:30:52.962Z,13.87
2023-04-25T07:33:24.529Z,8.57
2023-04-25T07:35:54.646Z,12.53
2023-04-25T07:38:27.236Z,11.00
2023-04-25T07:40:57.104Z,9.60
2023-04-25T07:43:27.287Z,12.63
2023-04-25T07:45:58.518Z,16.47
2023-04-25T07:48:28.452Z,13.17
2023-04-25T07:50:58.650Z,13.43
2023-04-25T07:53:32.954Z,10.07
2023-04-25T07:56:08.503Z,17.37
2023-04-25T07:58:39.380Z,12.27
2023-04-25T08:01:09.954Z,7.43
2023-04-25T08:03:40.219Z,9.63
2023-04-25T08:06:10.633Z,8.67
2023-04-25T08:08:43.476Z,13.00
2023-04-25T08:11:13.719Z,13.60
2023-04-25T08:13:43.574Z,11.00
2023-04-25T08:16:14.457Z,7.63
2023-04-25T08:18:44.439Z,10.47
2023-04-25T08:21:15.214Z,8.07
2023-04-25T08:23:47.674Z,6.77
2023-04-25T08:26:20.638Z,17.33
2023-04-25T08:28:50.738Z,7.03
2023-04-25T08:31:21.140Z,7.67
2023-04-25T08:33:53.205Z,17.77
2023-04-25T08:36:37.725Z,11.73
2023-04-25T08:39:11.569Z,9.10
2023-04-25T08:41:42.034Z,9.30
2023-04-25T08:44:14.668Z,10.40
2023-04-25T08:46:44.950Z,13.53
2023-04-25T08:49:17.496Z,9.60
2023-04-25T08:51:51.720Z,12.77
2023-04-25T08:54:35.723Z,8.03
2023-04-25T08:57:08.032Z,7.93
2023-04-25T08:59:39.235Z,7.00
2023-04-25T09:02:10.478Z,7.53
2023-04-25T09:04:40.766Z,7.93
2023-04-25T09:07:10.831Z,10.27
2023-04-25T09:09:43.554Z,9.37
2023-04-25T09:12:13.929Z,9.23
2023-04-25T09:14:45.064Z,8.23
2023-04-25T09:17:15.227Z,6.57
2023-04-25T09:19:46.989Z,8.37
2023-04-25T09:22:17.100Z,5.70
2023-04-25T09:24:52.394Z,8.30
2023-04-25T09:27:24.525Z,7.03
2023-04-25T09:30:01.340Z,7.13
2023-04-25T09:32:32.364Z,12.37
2023-04-25T09:35:02.449Z,11.10
2023-04-25T09:37:33.486Z,7.43
2023-04-25T09:40:11.464Z,8.73
2023-04-25T09:42:45.757Z,8.13
2023-04-25T09:45:17.496Z,3.80
2023-04-25T09:47:47.624Z,5.97
2023-04-25T09:50:25.981Z,9.03
2023-04-25T09:53:08.199Z,5.73
2023-04-25T09:55:42.017Z,7.70
2023-04-25T09:58:16.928Z,11.13
2023-04-25T10:00:47.328Z,3.27
2023-04-25T10:03:19.656Z,6.27
2023-04-25T10:05:53.698Z,6.00
2023-04-25T10:08:24.579Z,3.77
2023-04-25T10:10:57.246Z,4.97
2023-04-25T10:13:27.799Z,4.93
2023-04-25T10:15:59.039Z,8.83
2023-04-25T10:18:30.055Z,3.10
2023-04-25T10:21:01.970Z,4.73
2023-04-25T10:23:36.879Z,6.17
2023-04-25T10:26:13.846Z,4.87
2023-04-25T10:29:02.260Z,4.87
2023-04-25T10:31:34.195Z,4.47
2023-04-25T10:34:04.708Z,5.60
2023-04-25T10:36:42.827Z,7.00
2023-04-25T10:39:12.880Z,8.43
2023-04-25T10:42:03.530Z,7.50
2023-04-25T10:44:34.644Z,7.93
2023-04-25T10:47:06.955Z,7.80
2023-04-25T10:49:38.458Z,6.57
2023-04-25T10:52:29.293Z,3.43
2023-04-25T10:55:01.781Z,5.93
2023-04-25T10:57:41.991Z,7.43
2023-04-25T11:00:16.388Z,4.03
2023-04-25T11:02:48.354Z,2.77
2023-04-25T11:05:41.193Z,3.53
2023-04-25T11:08:21.872Z,8.13
2023-04-25T11:10:52.277Z,7.40
2023-04-25T11:13:26.048Z,4.37
2023-04-25T11:16:07.071Z,3.53
2023-04-25T11:18:45.643Z,6.23
2023-04-25T11:21:16.291Z,3.57
2023-04-25T11:23:49.348Z,4.70
2023-04-25T11:26:19.403Z,9.83
2023-04-25T11:29:04.158Z,4.40
2023-04-25T11:31:34.144Z,5.93
2023-04-25T11:34:04.373Z,3.40
2023-04-25T11:36:34.938Z,6.00
2023-04-25T11:39:06.208Z,4.07
2023-04-25T11:41:36.422Z,5.33
2023-04-25T11:44:09.714Z,6.43
2023-04-25T11:46:39.663Z,9.87
2023-04-25T11:49:09.554Z,4.57
2023-04-25T11:51:44.431Z,6.20
2023-04-25T11:54:14.714Z,5.20
2023-04-25T11:56:45.512Z,8.07
2023-04-25T11:59:18.294Z,4.43
2023-04-25T12:01:53.933Z,5.57
2023-04-25T12:04:26.001Z,7.00
2023-04-25T12:06:57.851Z,3.40
2023-04-25T12:09:34.153Z,6.60
2023-04-25T12:12:07.073Z,6.97
2023-04-25T12:14:39.951Z,6.53
2023-04-25T12:17:11.024Z,5.03
2023-04-25T12:19:45.076Z,4.07
2023-04-25T12:22:25.067Z,4.47
2023-04-25T12:24:55.495Z,3.70
2023-04-25T12:27:25.756Z,5.00
2023-04-25T12:29:59.689Z,3.33
2023-04-25T12:32:30.307Z,5.17
2023-04-25T12:35:00.797Z,5.60
2023-04-25T12:37:32.710Z,7.77
2023-04-25T12:40:02.630Z,4.20
2023-04-25T12:42:32.518Z,3.53
2023-04-25T12:45:05.040Z,5.70
2023-04-25T12:47:36.544Z,4.63
2023-04-25T12:50:06.528Z,8.40
2023-04-25T12:52:36.528Z,6.60
2023-04-25T12:55:07.183Z,5.40
2023-04-25T12:57:37.126Z,3.73
2023-04-25T13:00:15.998Z,4.20
2023-04-25T13:02:46.233Z,3.70
2023-04-25T13:05:16.554Z,5.23
2023-04-25T13:07:46.630Z,3.93
2023-04-25T13:10:16.862Z,5.23
2023-04-25T13:12:47.508Z,5.70
2023-04-25T13:15:20.442Z,12.30
2023-04-25T13:17:50.770Z,3.93
2023-04-25T13:20:23.719Z,3.00
2023-04-25T13:22:53.922Z,5.63
2023-04-25T13:25:23.947Z,2.10
2023-04-25T13:27:53.890Z,1.67
2023-04-25T13:30:26.598Z,3.27
2023-04-25T13:32:57.513Z,2.97
2023-04-25T13:35:27.444Z,2.00
2023-04-25T13:37:57.356Z,5.43
2023-04-25T13:40:28.036Z,7.70
2023-04-25T13:42:59.217Z,5.43
2023-04-25T13:45:33.567Z,3.23
2023-04-25T13:48:03.953Z,5.93
2023-04-25T13:50:34.132Z,6.50
2023-04-25T13:53:04.087Z,3.23
2023-04-25T13:55:34.051Z,8.13
2023-04-25T13:58:09.089Z,3.30
2023-04-25T14:00:44.535Z,5.50
2023-04-25T14:03:14.529Z,7.00
2023-04-25T14:05:44.549Z,10.70
2023-04-25T14:08:14.565Z,4.07
2023-04-25T14:10:44.501Z,4.70
2023-04-25T14:13:14.456Z,4.13
2023-04-25T14:15:47.062Z,2.20
2023-04-25T14:18:17.121Z,4.77
2023-04-25T14:20:47.276Z,3.77
2023-04-25T14:23:18.726Z,3.90
2023-04-25T14:25:48.812Z,3.77
2023-04-25T14:28:18.933Z,1.90
2023-04-25T14:30:54.594Z,3.80
2023-04-25T14:33:24.852Z,3.03
2023-04-25T14:35:54.909Z,5.53
2023-04-25T14:38:26.906Z,5.57
2023-04-25T14:40:56.983Z,2.63
2023-04-25T14:43:27.050Z,4.37
2023-04-25T14:45:59.677Z,3.53
2023-04-25T14:48:29.770Z,6.70
2023-04-25T14:51:01.184Z,5.23
2023-04-25T14:53:32.048Z,6.23
2023-04-25T14:56:02.347Z,9.93
2023-04-25T14:58:32.649Z,3.33
2023-04-25T15:01:05.509Z,3.97
2023-04-25T15:03:35.495Z,4.23
2023-04-25T15:06:05.687Z,3.47
2023-04-25T15:08:35.827Z,3.33
2023-04-25T15:11:06.370Z,4.00
2023-04-25T15:13:41.580Z,5.80
2023-04-25T15:16:14.144Z,5.87
2023-04-25T15:18:43.990Z,4.90
2023-04-25T15:21:13.904Z,8.63
2023-04-25T15:23:43.854Z,3.60
2023-04-25T15:26:13.912Z,3.17
2023-04-25T15:28:45.585Z,3.50
2023-04-25T15:31:18.198Z,8.77
2023-04-25T15:33:48.318Z,7.43
2023-04-25T15:36:19.662Z,2.77
2023-04-25T15:38:49.809Z,11.43
2023-04-25T15:41:21.794Z,6.17
2023-04-25T15:43:52.189Z,2.77
2023-04-25T15:46:25.099Z,4.23
2023-04-25T15:48:55.166Z,5.80
2023-04-25T15:51:25.085Z,5.27
2023-04-25T15:53:55.040Z,6.27
2023-04-25T15:56:25.019Z,1.93
2023-04-25T15:58:55.621Z,4.67
2023-04-25T16:01:31.319Z,4.17
2023-04-25T16:04:02.109Z,5.07
2023-04-25T16:06:32.303Z,4.80
2023-04-25T16:09:02.941Z,5.33
2023-04-25T16:11:33.164Z,4.23
2023-04-25T16:14:05.183Z,4.30
2023-04-25T16:16:37.937Z,3.20
2023-04-25T16:19:07.802Z,4.80
2023-04-25T16:21:37.724Z,2.73
2023-04-25T16:24:08.006Z,2.70
2023-04-25T16:26:37.899Z,3.73
2023-04-25T16:29:08.622Z,3.50
2023-04-25T16:31:41.927Z,3.80
2023-04-25T16:34:11.841Z,2.63
2023-04-25T16:36:42.062Z,3.70
2023-04-25T16:39:12.101Z,4.07
2023-04-25T16:41:42.173Z,3.97
2023-04-25T16:44:12.500Z,2.30
2023-04-25T16:46:47.791Z,3.87
2023-04-25T16:49:17.828Z,2.63
2023-04-25T16:51:48.359Z,5.30
2023-04-25T16:54:18.260Z,7.53
2023-04-25T16:56:48.128Z,3.73
2023-04-25T16:59:18.052Z,4.63
2023-04-25T17:01:50.604Z,4.27
2023-04-25T17:04:20.650Z,3.30
2023-04-25T17:06:50.562Z,4.67
2023-04-25T17:09:20.553Z,3.20
2023-04-25T17:11:51.383Z,2.43
2023-04-25T17:14:21.208Z,8.70
2023-04-25T17:16:55.792Z,4.80
2023-04-25T17:19:26.297Z,4.37
2023-04-25T17:21:56.276Z,5.90
2023-04-25T17:24:26.292Z,3.43
2023-04-25T17:26:57.460Z,1.77
2023-04-25T17:29:28.149Z,2.53
2023-04-25T17:32:00.987Z,4.10
2023-04-25T17:34:32.133Z,2.67
2023-04-25T17:37:02.195Z,4.10
2023-04-25T17:39:32.742Z,2.57
2023-04-25T17:42:02.747Z,5.73
2023-04-25T17:44:33.048Z,6.93
2023-04-25T17:47:07.981Z,3.43
2023-04-25T17:49:38.850Z,3.07
2023-04-25T17:52:10.117Z,5.17
2023-04-25T17:54:40.518Z,9.97
2023-04-25T17:57:10.665Z,5.53
2023-04-25T17:59:40.572Z,3.53
2023-04-25T18:02:13.648Z,2.80
2023-04-25T18:04:43.831Z,4.57
2023-04-25T18:07:13.954Z,4.13
2023-04-25T18:09:47.940Z,4.83
2023-04-25T18:12:18.540Z,5.00
2023-04-25T18:14:48.804Z,3.40
2023-04-25T18:17:25.635Z,4.33
2023-04-25T18:19:55.631Z,2.67
2023-04-25T18:22:25.897Z,7.63
2023-04-25T18:24:58.990Z,5.83
2023-04-25T18:27:29.083Z,4.17
2023-04-25T18:29:58.967Z,7.73
2023-04-25T18:32:33.344Z,3.83
2023-04-25T18:35:03.887Z,5.07
2023-04-25T18:37:34.256Z,5.83
2023-04-25T18:40:06.567Z,7.23
2023-04-25T18:42:38.075Z,5.80
2023-04-25T18:45:09.499Z,4.43
2023-04-25T18:47:42.159Z,6.77
2023-04-25T18:50:13.375Z,8.13
2023-04-25T18:52:43.840Z,8.00
2023-04-25T18:55:14.738Z,3.93
2023-04-25T18:57:45.549Z,5.47
2023-04-25T19:00:17.809Z,3.90
2023-04-25T19:02:51.342Z,6.67
2023-04-25T19:05:21.424Z,6.97
2023-04-25T19:07:51.841Z,4.90
2023-04-25T19:10:22.200Z,4.27
2023-04-25T19:12:52.634Z,5.40
2023-04-25T19:15:22.702Z,7.97
2023-04-25T19:17:55.410Z,2.47
2023-04-25T19:20:25.715Z,4.40
2023-04-25T19:22:57.063Z,7.03
2023-04-25T19:25:27.916Z,4.00
2023-04-25T19:28:00.703Z,6.07
2023-04-25T19:30:32.125Z,2.50
2023-04-25T19:33:04.871Z,3.83
2023-04-25T19:35:34.758Z,3.93
2023-04-25T19:38:05.050Z,3.13
2023-04-25T19:40:38.419Z,4.57
2023-04-25T19:43:08.517Z,3.53
2023-04-25T19:45:39.331Z,8.43
2023-04-25T19:48:14.260Z,4.63
2023-04-25T19:50:44.644Z,5.40
2023-04-25T19:53:14.915Z,4.77
2023-04-25T19:55:44.854Z,5.07
2023-04-25T19:58:14.950Z,6.67
2023-04-25T20:00:45.011Z,8.17
2023-04-25T20:03:17.689Z,3.80
2023-04-25T20:05:48.092Z,4.20
2023-04-25T20:08:18.164Z,3.50
2023-04-25T20:10:48.164Z,7.77
2023-04-25T20:13:18.167Z,2.87
2023-04-25T20:15:48.149Z,4.03
2023-04-25T20:18:20.847Z,4.30
2023-04-25T20:20:51.995Z,4.60
2023-04-25T20:23:22.018Z,5.37
2023-04-25T20:25:51.941Z,3.30
2023-04-25T20:28:23.414Z,4.07
2023-04-25T20:30:53.415Z,6.13
2023-04-25T20:33:26.477Z,4.70
2023-04-25T20:35:57.054Z,8.17
2023-04-25T20:38:26.978Z,4.77
2023-04-25T20:40:57.156Z,5.77
2023-04-25T20:43:27.474Z,3.90
2023-04-25T20:45:58.659Z,4.77
2023-04-25T20:48:31.470Z,11.57
2023-04-25T20:51:01.743Z,5.17
2023-04-25T20:53:31.570Z,5.10
2023-04-25T20:56:01.724Z,4.03
2023-04-25T20:58:32.109Z,5.73
2023-04-25T21:01:02.172Z,3.00
2023-04-25T21:03:35.657Z,4.47
2023-04-25T21:06:06.078Z,6.43
2023-04-25T21:08:35.909Z,6.03
2023-04-25T21:11:06.065Z,6.77
2023-04-25T21:13:35.996Z,4.57
2023-04-25T21:16:06.846Z,7.03
2023-04-25T21:18:39.456Z,5.90
2023-04-25T21:21:09.618Z,5.30
2023-04-25T21:23:39.565Z,6.63
2023-04-25T21:26:09.649Z,3.53
2023-04-25T21:28:39.565Z,4.10
2023-04-25T21:31:09.515Z,4.10
2023-04-25T21:33:42.054Z,2.53
2023-04-25T21:36:12.326Z,4.50
2023-04-25T21:38:42.249Z,4.70
2023-04-25T21:41:12.298Z,5.67
2023-04-25T21:43:42.328Z,5.57
2023-04-25T21:46:23.104Z,4.67
2023-04-25T21:48:56.312Z,7.47
2023-04-25T21:51:27.611Z,5.50
2023-04-25T21:53:59.043Z,5.37
2023-04-25T21:56:29.064Z,7.50
2023-04-25T21:58:58.881Z,9.00
2023-04-25T22:01:29.636Z,7.80
2023-04-25T22:04:02.356Z,4.40
2023-04-25T22:06:32.476Z,7.30
2023-04-25T22:09:02.603Z,8.10
2023-04-25T22:11:32.624Z,10.10
2023-04-25T22:14:02.840Z,9.60
2023-04-25T22:16:32.813Z,4.90
2023-04-25T22:19:06.461Z,6.47
2023-04-25T22:21:36.828Z,7.67
2023-04-25T22:24:07.102Z,6.37
2023-04-25T22:26:37.751Z,6.83
2023-04-25T22:29:07.825Z,7.97
2023-04-25T22:31:38.102Z,6.10
2023-04-25T22:34:10.796Z,7.23
2023-04-25T22:36:40.702Z,5.37
2023-04-25T22:39:11.141Z,6.40
2023-04-25T22:41:41.018Z,7.30
2023-04-25T22:44:11.277Z,6.27
2023-04-25T22:46:41.349Z,4.07
2023-04-25T22:49:14.815Z,5.83
2023-04-25T22:51:44.688Z,5.63
2023-04-25T22:54:14.613Z,8.17
2023-04-25T22:56:45.491Z,4.50
2023-04-25T22:59:16.414Z,5.20
2023-04-25T23:01:46.770Z,5.83
2023-04-25T23:04:19.833Z,4.23
2023-04-25T23:06:50.063Z,7.60
2023-04-25T23:09:20.191Z,6.60
2023-04-25T23:11:53.370Z,4.80
2023-04-25T23:14:24.409Z,4.60
2023-04-25T23:16:55.750Z,5.73
2023-04-25T23:19:28.540Z,7.77
2023-04-25T23:21:59.270Z,5.00
2023-04-25T23:24:29.386Z,10.23
2023-04-25T23:26:59.436Z,4.00
2023-04-25T23:29:29.820Z,7.03
2023-04-25T23:31:59.941Z,5.30
2023-04-25T23:34:32.895Z,6.50
2023-04-25T23:37:04.705Z,9.03
2023-04-25T23:39:34.660Z,7.30
2023-04-25T23:42:04.612Z,8.93
2023-04-25T23:44:34.891Z,5.97
2023-04-25T23:47:04.775Z,6.73
2023-04-25T23:49:37.319Z,6.80
2023-04-25T23:52:07.603Z,6.57
2023-04-25T23:54:37.477Z,6.47
2023-04-25T23:57:07.508Z,4.80
2023-04-25T23:59:37.573Z,5.17
